KAXS/AXS METAR and TAF weather

Enter ICAO airport designator
Station Type Date Time Source
KAXS METAR 2019/10/20 18:55 UTC NOAA

KAXS 201855Z AUTO 19014G20KT 10SM CLR 29/08 A2967 RMK AO2 T02860082


Station Type Date Time Source
KAXS Decoded METAR 2019/10/20 18:55 UTC NOAA

Altus, Altus/Quartz Mountain Regional Airport, OK, United States (KAXS) 34-41-55N 099-20-17W
Oct 20, 2019 - 02:55 PM EDT / 2019.10.20 1855 UTC
Wind: from the S (190 degrees) at 16 MPH (14 KT) gusting to 23 MPH (20 KT):0
Visibility: 10 mile(s):0
Sky conditions: clear
Temperature: 83.5 F (28.6 C)
Dew Point: 46.8 F (8.2 C)
Relative Humidity: 27%
Pressure (altimeter): 29.67 in. Hg (1004 hPa)
ob: KAXS 201855Z AUTO 19014G20KT 10SM CLR 29/08 A2967 RMK AO2 T02860082
cycle: 19

Station Type Date Time Source
KAXS TAF UTC NOAA

Error!

Example: see airport list